Hovedside
METAR-TAF:

METAR-TAF

Lufthavner :

King Mswati III International Airport

Manzini, Swaziland

breddegrad: 26-21-24S, lengdegrad: 031-43-01E, høyde over havet: 324 m

Gjeldene værobservasjon

Denne rapporten ble laget for 6 timer og 43 minutter siden, klokken 19:00 UTC
Vind 3 kt fra Sørvest
Temperatur 13°C
Luftfuktighet 88%
Trykk 1028 hPa
Sikt 10 km eller mer
ingen skyer under 1500 m og ingen bygeskyer

METAR: FDSK 131900Z 22003KT CAVOK 13/11 Q1028 NOSIG

Tid: 03:43 (01:43 UTC)

Varsel

Denne rapporten ble laget for 15 timer og 43 minutter siden, klokken 10:00 UTC
Varsel gyldig fra 13. klokken 12 UTC til 13. klokken 21 UTC
Vind 9 kt fra Sør
Spredte skyer i en høyde av 3500 ft

TAF: FDSK 131000Z 1312/1321 17009KT SCT035

Værobservasjoner og værvarsel for over 4000 flyplasser (METAR- og TAF-rapporter).

Tilgjengelige stasjoner er representert av de røde og gule prikkene på kartet.

Hold musepekeren over prikken for å se navnet på stasjonen.

Klikk så for å se værobservasjoner og -varsler.

For å forandre kartet kan du klikke på den grønne knappen med svart kryss for å zoome inn, på den grønne knappen med strek for å zoome ut, eller på de grønne pilene for å se tilstøtende kart.


METAR-TAF: